Main page
METAR-TAF:

METAR-TAF

Airports :

Šiauliai, Lithuania

Šiauliai International Airport

latitude: 55-53-38N, longitude: 023-23-42E, elevation: 135 m

Current weather observation

The report was made 14 minutes ago, at 08:20 UTC
Wind 10 kt from the West/Southwest
Temperature 23°C
Humidity 53%
Pressure 1019 hPa
Visibility 10 km or more
no clouds below 1500 m and no cumulonimbus

METAR: EYSA 280820Z 24010KT CAVOK 23/13 Q1019 BLU NOSIG

Time: 11:34 (08:34 UTC)

Forecast

The report was made 3 hours and 34 minutes ago, at 05:00 UTC
Forecast valid from 28 at 06 UTC to 28 at 15 UTC
Wind 14 kt from the West
Visibility 10 km or more
no clouds below 1500 m and no cumulonimbus

TAF: EYSA 280500Z 2806/2815 26014KT CAVOK

Weather observations and forecasts of more than 4000 airports (METAR and TAF reports).

The available stations are represented by yellow and red dots on the map.

Hover mouse over dot to see the name of the station.

Then click to see weather observations and forecasts.

To change the map : click on the green buttons with a black cross to zoom in, on the green button with a dash to zoom out, or on the green arrows for adjacent maps.


METAR-TAF: